Time;durP1;ratioP1;P1;durP2;ratioP2;P2;SDS_P1;SDS_P2;PMS_P1;PMS_P2;Temp;Humidity;BMP_temperature;BMP_pressure;BME280_temperature;BME280_humidity;BME280_pressure;Samples;Min_cycle;Max_cycle;Signal;HPM_P1;HPM_P2
2023/03/26 00:00:31;;;;;;;0.85;0.60;;;;;;;;;;5096927;28;20298;-63
2023/03/26 00:02:58;;;;;;;0.88;0.60;;;;;;;;;;5096818;28;20284;-63
2023/03/26 00:05:26;;;;;;;1.02;0.40;;;;;;;;;;5097163;28;20207;-63
2023/03/26 00:07:54;;;;;;;0.40;0.40;;;;;;;;;;5096908;28;20282;-63
2023/03/26 00:10:21;;;;;;;1.25;0.60;;;;;;;;;;5097516;28;20230;-62
2023/03/26 00:12:48;;;;;;;0.98;0.40;;;;;;;;;;5101002;28;20203;-63
2023/03/26 00:15:16;;;;;;;0.70;0.40;;;;;;;;;;5101042;28;20302;-63
2023/03/26 00:17:46;;;;;;;1.00;0.50;;;;;;;;;;5100754;28;20204;-63
2023/03/26 00:20:13;;;;;;;0.85;0.40;;;;;;;;;;5100807;28;20294;-63
2023/03/26 00:22:41;;;;;;;0.50;0.50;;;;;;;;;;5100904;28;20207;-63
2023/03/26 00:25:09;;;;;;;0.73;0.40;;;;;;;;;;5100958;28;20208;-63
2023/03/26 00:27:36;;;;;;;0.47;0.40;;;;;;;;;;5100802;28;20720;-63
2023/03/26 00:30:04;;;;;;;0.68;0.38;;;;;;;;;;5100897;28;20228;-63
2023/03/26 00:32:32;;;;;;;0.50;0.30;;;;;;;;;;5100620;28;20254;-63
2023/03/26 00:35:02;;;;;;;0.70;0.32;;;;;;;;;;5100694;28;20218;-63
2023/03/26 00:37:32;;;;;;;0.50;0.40;;;;;;;;;;5100867;28;20203;-63
2023/03/26 00:40:03;;;;;;;0.70;0.32;;;;;;;;;;5100422;28;20206;-63
2023/03/26 00:42:30;;;;;;;0.55;0.40;;;;;;;;;;5100544;28;20298;-63
2023/03/26 00:44:58;;;;;;;0.82;0.40;;;;;;;;;;5099913;28;20211;-63
2023/03/26 00:47:26;;;;;;;0.75;0.40;;;;;;;;;;5099805;28;20269;-63
2023/03/26 00:49:53;;;;;;;0.50;0.43;;;;;;;;;;5099621;28;20228;-63
2023/03/26 00:52:22;;;;;;;0.50;0.30;;;;;;;;;;5099444;28;20253;-63
2023/03/26 00:54:51;;;;;;;0.63;0.40;;;;;;;;;;5099678;28;20251;-63
2023/03/26 00:57:21;;;;;;;0.40;0.35;;;;;;;;;;5100238;28;20298;-63
2023/03/26 00:59:49;;;;;;;0.52;0.40;;;;;;;;;;5100140;28;20199;-63
2023/03/26 01:02:17;;;;;;;0.60;0.40;;;;;;;;;;5099868;28;20239;-63
2023/03/26 01:04:46;;;;;;;1.02;0.50;;;;;;;;;;5099799;28;20486;-63
2023/03/26 01:07:15;;;;;;;0.35;0.30;;;;;;;;;;5100024;28;20204;-63
2023/03/26 01:09:49;;;;;;;0.38;0.32;;;;;;;;;;5099779;28;20227;-63
2023/03/26 01:12:18;;;;;;;0.47;0.47;;;;;;;;;;5099968;28;20211;-63
2023/03/26 01:14:47;;;;;;;1.17;0.40;;;;;;;;;;5099517;28;20214;-63
2023/03/26 01:17:14;;;;;;;0.60;0.50;;;;;;;;;;5099436;28;20265;-63
2023/03/26 01:19:46;;;;;;;0.50;0.30;;;;;;;;;;5099052;28;20199;-63
2023/03/26 01:22:15;;;;;;;0.38;0.35;;;;;;;;;;5098476;28;20214;-63
2023/03/26 01:24:47;;;;;;;0.85;0.47;;;;;;;;;;5099404;28;20298;-63
2023/03/26 01:27:23;;;;;;;0.47;0.40;;;;;;;;;;5099221;28;20592;-63
2023/03/26 01:29:53;;;;;;;0.60;0.30;;;;;;;;;;5099085;28;20276;-63
2023/03/26 01:32:29;;;;;;;0.77;0.50;;;;;;;;;;5098979;28;20207;-63
2023/03/26 01:35:02;;;;;;;0.50;0.30;;;;;;;;;;5099643;28;20286;-63
2023/03/26 01:37:34;;;;;;;0.30;0.30;;;;;;;;;;5099341;28;20297;-63
2023/03/26 01:40:05;;;;;;;0.85;0.40;;;;;;;;;;5099347;28;20199;-63
2023/03/26 01:42:36;;;;;;;0.40;0.30;;;;;;;;;;5098969;28;20214;-63
2023/03/26 01:45:07;;;;;;;0.60;0.40;;;;;;;;;;5099272;28;20530;-63
2023/03/26 01:47:35;;;;;;;0.57;0.30;;;;;;;;;;5098892;28;20203;-63
2023/03/26 01:50:02;;;;;;;0.40;0.30;;;;;;;;;;5098999;28;20223;-63
2023/03/26 01:52:30;;;;;;;0.30;0.30;;;;;;;;;;5099023;28;20704;-63
2023/03/26 01:54:58;;;;;;;0.70;0.30;;;;;;;;;;5099148;28;20252;-63
2023/03/26 01:57:33;;;;;;;0.57;0.40;;;;;;;;;;5098581;28;20294;-63
2023/03/26 02:00:10;;;;;;;0.55;0.32;;;;;;;;;;5099125;28;20276;-63
2023/03/26 02:02:42;;;;;;;0.88;0.50;;;;;;;;;;5098609;28;20234;-63
2023/03/26 02:05:14;;;;;;;0.40;0.40;;;;;;;;;;5098917;28;20215;-63
2023/03/26 02:07:43;;;;;;;0.73;0.50;;;;;;;;;;5098696;28;20294;-63
2023/03/26 02:10:14;;;;;;;0.38;0.32;;;;;;;;;;5098734;28;20223;-63
2023/03/26 02:12:43;;;;;;;0.43;0.40;;;;;;;;;;5098589;28;20203;-63
2023/03/26 02:15:11;;;;;;;0.38;0.32;;;;;;;;;;5098582;28;20204;-63
2023/03/26 02:17:40;;;;;;;0.20;0.20;;;;;;;;;;5098628;28;20302;-63
2023/03/26 02:20:08;;;;;;;1.95;0.57;;;;;;;;;;5098145;28;20200;-63
2023/03/26 02:22:39;;;;;;;0.50;0.40;;;;;;;;;;5098529;28;20212;-63
2023/03/26 02:25:07;;;;;;;0.68;0.50;;;;;;;;;;5098956;28;20271;-63
2023/03/26 02:27:35;;;;;;;0.30;0.30;;;;;;;;;;5098245;28;20203;-63
2023/03/26 02:30:03;;;;;;;0.35;0.30;;;;;;;;;;5099027;28;20224;-63
2023/03/26 02:32:31;;;;;;;0.40;0.30;;;;;;;;;;5098921;28;20204;-63
2023/03/26 02:34:59;;;;;;;0.32;0.30;;;;;;;;;;5097842;28;20203;-63
2023/03/26 02:37:26;;;;;;;0.50;0.30;;;;;;;;;;5098412;28;20234;-63
2023/03/26 02:39:54;;;;;;;0.40;0.30;;;;;;;;;;5098091;28;20294;-63
2023/03/26 02:42:21;;;;;;;0.35;0.35;;;;;;;;;;5098056;28;20203;-63
2023/03/26 02:44:48;;;;;;;0.50;0.40;;;;;;;;;;5097419;28;20203;-63
2023/03/26 02:47:17;;;;;;;0.60;0.30;;;;;;;;;;5098133;28;20214;-63
2023/03/26 02:49:45;;;;;;;0.50;0.40;;;;;;;;;;5097413;28;20326;-63
2023/03/26 02:52:15;;;;;;;0.50;0.30;;;;;;;;;;5097640;28;20250;-63
2023/03/26 02:54:43;;;;;;;0.38;0.35;;;;;;;;;;5097726;28;20216;-63
2023/03/26 02:57:10;;;;;;;0.40;0.40;;;;;;;;;;5098030;28;20266;-63
2023/03/26 02:59:38;;;;;;;1.17;0.40;;;;;;;;;;5098077;28;20306;-63
2023/03/26 03:02:05;;;;;;;0.50;0.40;;;;;;;;;;5097327;28;20207;-63
2023/03/26 03:04:34;;;;;;;0.40;0.40;;;;;;;;;;5097807;28;20203;-63
2023/03/26 03:07:02;;;;;;;0.45;0.45;;;;;;;;;;5097820;28;20543;-63
2023/03/26 03:09:29;;;;;;;0.60;0.40;;;;;;;;;;5097761;28;20551;-63
2023/03/26 03:11:57;;;;;;;0.50;0.30;;;;;;;;;;5097351;28;20238;-63
2023/03/26 03:14:24;;;;;;;0.45;0.40;;;;;;;;;;5097975;28;20298;-63
2023/03/26 03:16:52;;;;;;;0.52;0.40;;;;;;;;;;5097770;28;20298;-63
2023/03/26 03:19:19;;;;;;;0.50;0.38;;;;;;;;;;5097443;28;20204;-63
2023/03/26 03:21:48;;;;;;;0.73;0.38;;;;;;;;;;5097843;28;20226;-63
2023/03/26 03:24:17;;;;;;;0.40;0.40;;;;;;;;;;5097762;28;20203;-63
2023/03/26 03:26:46;;;;;;;0.55;0.40;;;;;;;;;;5097688;28;20641;-63
2023/03/26 03:29:13;;;;;;;0.90;0.40;;;;;;;;;;5096840;28;20223;-62
2023/03/26 03:31:41;;;;;;;0.43;0.38;;;;;;;;;;5097040;28;20230;-62
2023/03/26 03:34:09;;;;;;;0.68;0.50;;;;;;;;;;5097771;28;20203;-62
2023/03/26 03:36:37;;;;;;;0.43;0.38;;;;;;;;;;5097412;28;20211;-62
2023/03/26 03:39:06;;;;;;;0.50;0.50;;;;;;;;;;5097191;28;20485;-62
2023/03/26 03:41:33;;;;;;;0.50;0.30;;;;;;;;;;5097189;28;20240;-62
2023/03/26 03:44:00;;;;;;;0.73;0.50;;;;;;;;;;5097146;28;20286;-62
2023/03/26 03:46:28;;;;;;;0.50;0.50;;;;;;;;;;5096303;28;20230;-62
2023/03/26 03:48:56;;;;;;;0.50;0.43;;;;;;;;;;5098037;28;20466;-62
2023/03/26 03:51:23;;;;;;;0.70;0.40;;;;;;;;;;5097530;28;20230;-62
2023/03/26 03:53:51;;;;;;;0.52;0.40;;;;;;;;;;5097178;28;20203;-62
2023/03/26 03:56:22;;;;;;;0.75;0.40;;;;;;;;;;5097074;28;20270;-62
2023/03/26 03:58:50;;;;;;;0.93;0.50;;;;;;;;;;5097073;28;20492;-62
2023/03/26 04:01:21;;;;;;;0.70;0.50;;;;;;;;;;5096871;28;20298;-62
2023/03/26 04:03:48;;;;;;;0.55;0.30;;;;;;;;;;5097162;28;20225;-62
2023/03/26 04:06:17;;;;;;;0.50;0.50;;;;;;;;;;5097375;28;20215;-62
2023/03/26 04:08:45;;;;;;;0.63;0.50;;;;;;;;;;5096871;28;20203;-62
2023/03/26 04:11:12;;;;;;;0.52;0.45;;;;;;;;;;5096729;28;20227;-62
2023/03/26 04:13:41;;;;;;;1.05;0.50;;;;;;;;;;5096784;28;20636;-63
2023/03/26 04:16:08;;;;;;;0.70;0.40;;;;;;;;;;5096668;28;20294;-63
2023/03/26 04:18:36;;;;;;;1.00;0.40;;;;;;;;;;5096883;28;20624;-63
2023/03/26 04:21:04;;;;;;;0.47;0.40;;;;;;;;;;5096719;28;20239;-63
2023/03/26 04:23:31;;;;;;;0.60;0.50;;;;;;;;;;5096783;28;20598;-63
2023/03/26 04:26:03;;;;;;;0.40;0.40;;;;;;;;;;5097168;28;20466;-63
2023/03/26 04:28:31;;;;;;;0.40;0.40;;;;;;;;;;5096855;28;20584;-63
2023/03/26 04:31:02;;;;;;;0.47;0.40;;;;;;;;;;5096879;28;20284;-63
2023/03/26 04:33:30;;;;;;;0.60;0.45;;;;;;;;;;5097195;28;20203;-63
2023/03/26 04:36:01;;;;;;;0.85;0.60;;;;;;;;;;5097051;28;20272;-63
2023/03/26 04:38:32;;;;;;;0.80;0.50;;;;;;;;;;5096662;28;20204;-63
2023/03/26 04:40:59;;;;;;;0.50;0.40;;;;;;;;;;5096849;28;20226;-63
2023/03/26 04:43:27;;;;;;;0.60;0.40;;;;;;;;;;5096657;28;20294;-63
2023/03/26 04:45:54;;;;;;;0.52;0.40;;;;;;;;;;5096858;28;20215;-63
2023/03/26 04:48:23;;;;;;;0.52;0.40;;;;;;;;;;5096976;28;20466;-63
2023/03/26 04:50:50;;;;;;;0.52;0.45;;;;;;;;;;5096961;28;20677;-63
2023/03/26 04:53:20;;;;;;;0.50;0.50;;;;;;;;;;5096986;28;20203;-63
2023/03/26 04:55:50;;;;;;;0.43;0.40;;;;;;;;;;5096185;28;20231;-63
2023/03/26 04:58:17;;;;;;;0.75;0.60;;;;;;;;;;5099888;28;20269;-63
2023/03/26 05:00:46;;;;;;;0.50;0.32;;;;;;;;;;5100268;28;20213;-63
2023/03/26 05:03:14;;;;;;;0.50;0.40;;;;;;;;;;5100061;28;20639;-63
2023/03/26 05:05:43;;;;;;;0.75;0.50;;;;;;;;;;5100766;28;20207;-63
2023/03/26 05:08:10;;;;;;;0.80;0.50;;;;;;;;;;5100404;28;20347;-63
2023/03/26 05:10:38;;;;;;;0.80;0.43;;;;;;;;;;5100487;28;20235;-63
2023/03/26 05:13:05;;;;;;;0.43;0.43;;;;;;;;;;5100071;28;20289;-63
2023/03/26 05:15:32;;;;;;;1.25;0.60;;;;;;;;;;5100346;28;20208;-63
2023/03/26 05:17:59;;;;;;;1.45;0.50;;;;;;;;;;5099811;28;20280;-63
2023/03/26 05:20:29;;;;;;;0.88;0.50;;;;;;;;;;5100307;28;20288;-63
2023/03/26 05:22:58;;;;;;;0.73;0.50;;;;;;;;;;5099890;28;20302;-63
2023/03/26 05:25:25;;;;;;;1.10;0.50;;;;;;;;;;5100026;28;20587;-63
2023/03/26 05:27:53;;;;;;;0.70;0.50;;;;;;;;;;5100099;28;20204;-63
2023/03/26 05:30:21;;;;;;;0.77;0.52;;;;;;;;;;5099850;28;20763;-63
2023/03/26 05:32:50;;;;;;;0.60;0.30;;;;;;;;;;5099707;28;20212;-63
2023/03/26 05:35:18;;;;;;;1.10;0.60;;;;;;;;;;5099371;28;20231;-63
2023/03/26 05:37:45;;;;;;;0.95;0.52;;;;;;;;;;5099840;28;20219;-63
2023/03/26 05:40:15;;;;;;;0.80;0.50;;;;;;;;;;5099909;28;20289;-63
2023/03/26 05:42:43;;;;;;;1.17;0.60;;;;;;;;;;5099429;28;20211;-63
2023/03/26 05:45:12;;;;;;;0.70;0.40;;;;;;;;;;5099648;28;20214;-63
2023/03/26 05:47:39;;;;;;;1.13;0.52;;;;;;;;;;5099404;28;20215;-63
2023/03/26 05:50:07;;;;;;;1.38;0.50;;;;;;;;;;5099238;28;20231;-63
2023/03/26 05:52:35;;;;;;;0.63;0.40;;;;;;;;;;5098631;28;20204;-63
2023/03/26 05:55:02;;;;;;;1.17;0.40;;;;;;;;;;5099152;28;20560;-63
2023/03/26 05:57:31;;;;;;;0.80;0.50;;;;;;;;;;5099619;28;20211;-63
2023/03/26 05:59:59;;;;;;;0.50;0.50;;;;;;;;;;5099069;28;20200;-63
2023/03/26 06:02:28;;;;;;;0.63;0.50;;;;;;;;;;5099192;28;20212;-63
2023/03/26 06:04:55;;;;;;;0.73;0.50;;;;;;;;;;5099161;28;20200;-63
2023/03/26 06:07:23;;;;;;;0.77;0.47;;;;;;;;;;5098837;28;20203;-63
2023/03/26 06:09:50;;;;;;;0.57;0.57;;;;;;;;;;5098224;28;20208;-63
2023/03/26 06:12:18;;;;;;;0.65;0.40;;;;;;;;;;5099045;28;20636;-63
2023/03/26 06:14:47;;;;;;;1.00;0.45;;;;;;;;;;5099153;28;20211;-63
2023/03/26 06:17:14;;;;;;;0.40;0.32;;;;;;;;;;5098655;28;20204;-63
2023/03/26 06:19:41;;;;;;;0.75;0.50;;;;;;;;;;5097815;28;20270;-63
2023/03/26 06:22:09;;;;;;;0.80;0.52;;;;;;;;;;5098345;28;20276;-63
2023/03/26 06:24:36;;;;;;;0.60;0.40;;;;;;;;;;5098392;28;20211;-62
2023/03/26 06:27:03;;;;;;;0.38;0.38;;;;;;;;;;5098882;28;20211;-62
2023/03/26 06:29:31;;;;;;;0.88;0.40;;;;;;;;;;5098580;28;20211;-62
2023/03/26 06:31:59;;;;;;;0.73;0.55;;;;;;;;;;5098632;28;20276;-62
2023/03/26 06:34:27;;;;;;;1.15;0.50;;;;;;;;;;5098618;28;20212;-62
2023/03/26 06:36:54;;;;;;;0.90;0.40;;;;;;;;;;5098108;28;20571;-63
2023/03/26 06:39:21;;;;;;;0.77;0.50;;;;;;;;;;5098571;28;20218;-63
2023/03/26 06:41:49;;;;;;;0.45;0.40;;;;;;;;;;5098367;28;20211;-63
2023/03/26 06:44:16;;;;;;;0.63;0.50;;;;;;;;;;5098328;28;20208;-63
2023/03/26 06:46:43;;;;;;;0.40;0.38;;;;;;;;;;5098192;28;20603;-63
2023/03/26 06:49:12;;;;;;;0.50;0.50;;;;;;;;;;5097737;28;20734;-63
2023/03/26 06:51:40;;;;;;;0.52;0.50;;;;;;;;;;5098012;28;20240;-63
2023/03/26 06:54:08;;;;;;;0.60;0.30;;;;;;;;;;5098186;28;20233;-62
2023/03/26 06:56:35;;;;;;;0.68;0.40;;;;;;;;;;5097574;28;20235;-62
2023/03/26 06:59:02;;;;;;;0.85;0.52;;;;;;;;;;5097574;28;20203;-63
2023/03/26 07:01:29;;;;;;;0.32;0.30;;;;;;;;;;5097859;28;20218;-63
2023/03/26 07:03:57;;;;;;;0.60;0.50;;;;;;;;;;5097622;28;20559;-63
2023/03/26 07:06:26;;;;;;;0.55;0.40;;;;;;;;;;5098012;28;20598;-63
2023/03/26 07:08:56;;;;;;;1.23;0.68;;;;;;;;;;5097538;28;20215;-63
2023/03/26 07:11:24;;;;;;;0.85;0.50;;;;;;;;;;5097418;28;20223;-63
2023/03/26 07:13:51;;;;;;;1.02;0.50;;;;;;;;;;5097332;28;20594;-63
2023/03/26 07:16:18;;;;;;;0.82;0.57;;;;;;;;;;5097787;28;20211;-63
2023/03/26 07:18:46;;;;;;;0.88;0.47;;;;;;;;;;5097419;28;20207;-63
2023/03/26 07:21:13;;;;;;;0.60;0.47;;;;;;;;;;5096481;28;20211;-63
2023/03/26 07:23:43;;;;;;;1.20;0.65;;;;;;;;;;5097273;28;20547;-63
2023/03/26 07:26:14;;;;;;;0.95;0.50;;;;;;;;;;5096594;28;20675;-63
2023/03/26 07:28:42;;;;;;;1.25;0.52;;;;;;;;;;5097432;28;20227;-63
2023/03/26 07:31:15;;;;;;;1.08;0.60;;;;;;;;;;5097296;28;20228;-63
2023/03/26 07:33:47;;;;;;;1.20;0.55;;;;;;;;;;5097038;28;20499;-63
2023/03/26 07:36:19;;;;;;;0.70;0.60;;;;;;;;;;5097512;28;20258;-63
2023/03/26 07:38:54;;;;;;;1.00;0.60;;;;;;;;;;5097226;28;20203;-63
2023/03/26 07:41:25;;;;;;;1.08;0.50;;;;;;;;;;5097214;28;20249;-63
2023/03/26 07:43:59;;;;;;;1.02;0.60;;;;;;;;;;5097032;28;20222;-63
2023/03/26 07:46:30;;;;;;;1.02;0.50;;;;;;;;;;5097118;28;20233;-63
2023/03/26 07:49:00;;;;;;;1.63;0.60;;;;;;;;;;5097488;28;20475;-63
2023/03/26 07:51:28;;;;;;;1.25;0.60;;;;;;;;;;5096947;28;20571;-63
2023/03/26 07:53:58;;;;;;;0.85;0.60;;;;;;;;;;5097357;28;20302;-63
2023/03/26 07:56:27;;;;;;;0.77;0.50;;;;;;;;;;5095835;28;20235;-63
2023/03/26 07:59:03;;;;;;;1.13;0.50;;;;;;;;;;5095479;28;20204;-63
2023/03/26 08:01:39;;;;;;;0.50;0.40;;;;;;;;;;5096519;28;20385;-63
2023/03/26 08:04:22;;;;;;;1.05;0.70;;;;;;;;;;5096631;28;20225;-63
2023/03/26 08:06:55;;;;;;;1.13;0.50;;;;;;;;;;5096413;28;20203;-63
2023/03/26 08:09:28;;;;;;;1.98;0.70;;;;;;;;;;5096422;28;20290;-63
2023/03/26 08:11:57;;;;;;;1.80;0.75;;;;;;;;;;5096058;28;20701;-63
2023/03/26 08:14:33;;;;;;;1.58;0.75;;;;;;;;;;5096818;28;20475;-63
2023/03/26 08:17:02;;;;;;;1.00;0.60;;;;;;;;;;5096135;28;20253;-63
2023/03/26 08:19:37;;;;;;;1.30;0.40;;;;;;;;;;5096225;28;20214;-63
2023/03/26 08:22:10;;;;;;;1.38;0.70;;;;;;;;;;5096027;28;20199;-63
2023/03/26 08:24:42;;;;;;;1.63;0.50;;;;;;;;;;5096547;28;20203;-63
2023/03/26 08:27:14;;;;;;;2.72;0.65;;;;;;;;;;5096433;28;20294;-63
2023/03/26 08:29:43;;;;;;;2.28;0.90;;;;;;;;;;5096181;28;20203;-63
2023/03/26 08:32:14;;;;;;;2.22;0.60;;;;;;;;;;5097639;28;20219;-63
2023/03/26 08:34:41;;;;;;;1.35;0.52;;;;;;;;;;5100314;28;20301;-63
2023/03/26 08:37:10;;;;;;;2.63;0.80;;;;;;;;;;5100229;28;20203;-63
2023/03/26 08:39:40;;;;;;;0.70;0.60;;;;;;;;;;5100205;28;20239;-63
2023/03/26 08:42:20;;;;;;;1.70;0.57;;;;;;;;;;5100281;28;20199;-63
2023/03/26 08:45:10;;;;;;;1.08;0.70;;;;;;;;;;5099821;28;20724;-63
2023/03/26 08:48:08;;;;;;;2.42;0.65;;;;;;;;;;5099733;28;20268;-63
2023/03/26 08:50:53;;;;;;;2.13;0.73;;;;;;;;;;5017713;28;20221;-63
2023/03/26 08:53:44;;;;;;;2.00;0.73;;;;;;;;;;5090438;28;20210;-63
2023/03/26 08:56:19;;;;;;;2.08;0.70;;;;;;;;;;5079926;28;20511;-63
2023/03/26 08:59:07;;;;;;;2.40;0.80;;;;;;;;;;5099935;28;20214;-63
2023/03/26 09:01:53;;;;;;;1.27;0.70;;;;;;;;;;5099590;28;20491;-63
2023/03/26 09:04:43;;;;;;;2.33;0.85;;;;;;;;;;5099409;28;20203;-63
2023/03/26 09:07:34;;;;;;;3.40;0.75;;;;;;;;;;5099463;28;20203;-63
2023/03/26 09:10:09;;;;;;;3.78;0.73;;;;;;;;;;5099552;28;20204;-63
2023/03/26 09:12:57;;;;;;;1.67;0.93;;;;;;;;;;5099547;28;20626;-63
2023/03/26 09:15:44;;;;;;;3.22;0.80;;;;;;;;;;5093073;28;20610;-63
2023/03/26 09:18:24;;;;;;;2.05;0.68;;;;;;;;;;5099430;28;20611;-63
2023/03/26 09:21:16;;;;;;;2.10;0.50;;;;;;;;;;5099790;28;20260;-63
2023/03/26 09:24:02;;;;;;;1.52;0.80;;;;;;;;;;5099589;28;20638;-63
2023/03/26 09:26:39;;;;;;;1.35;0.98;;;;;;;;;;5099409;28;20204;-63
2023/03/26 09:29:36;;;;;;;1.05;0.50;;;;;;;;;;5098879;28;20502;-63
2023/03/26 09:32:16;;;;;;;2.58;0.63;;;;;;;;;;5016899;28;20237;-63
2023/03/26 09:34:59;;;;;;;2.60;0.60;;;;;;;;;;5087290;28;20210;-63
2023/03/26 09:37:29;;;;;;;1.88;0.60;;;;;;;;;;5099096;28;20245;-63
2023/03/26 09:40:03;;;;;;;2.15;0.80;;;;;;;;;;5098628;28;20219;-63
2023/03/26 09:42:38;;;;;;;1.77;0.73;;;;;;;;;;5099126;28;20542;-63
2023/03/26 09:45:21;;;;;;;2.00;0.70;;;;;;;;;;5098303;28;20251;-63
2023/03/26 09:47:59;;;;;;;1.20;0.50;;;;;;;;;;5097134;28;20285;-63
2023/03/26 09:50:30;;;;;;;1.80;0.82;;;;;;;;;;5099212;28;20594;-63
2023/03/26 09:53:04;;;;;;;1.25;0.45;;;;;;;;;;5099108;28;20238;-63
2023/03/26 09:55:40;;;;;;;2.20;0.80;;;;;;;;;;5098258;28;20244;-63
2023/03/26 09:58:34;;;;;;;1.88;0.75;;;;;;;;;;5098779;28;20203;-63
2023/03/26 10:01:09;;;;;;;1.00;0.60;;;;;;;;;;5099091;28;20276;-63
2023/03/26 10:03:43;;;;;;;1.35;0.68;;;;;;;;;;5098547;28;20203;-63
2023/03/26 10:06:20;;;;;;;1.67;0.68;;;;;;;;;;5097977;28;20591;-63
2023/03/26 10:09:02;;;;;;;2.42;0.85;;;;;;;;;;5098086;28;20253;-63
2023/03/26 10:11:34;;;;;;;1.88;0.68;;;;;;;;;;5094999;28;20239;-63
2023/03/26 10:14:04;;;;;;;1.42;0.60;;;;;;;;;;5097373;28;20214;-63
2023/03/26 10:16:35;;;;;;;1.75;0.70;;;;;;;;;;5097764;28;20223;-63
2023/03/26 10:19:15;;;;;;;1.40;0.77;;;;;;;;;;5098503;28;20550;-63
2023/03/26 10:21:46;;;;;;;1.73;0.70;;;;;;;;;;5098054;28;20294;-63
2023/03/26 10:24:32;;;;;;;0.70;0.70;;;;;;;;;;5098028;28;20581;-63
2023/03/26 10:27:20;;;;;;;1.60;0.65;;;;;;;;;;5097521;28;20583;-63
2023/03/26 10:30:15;;;;;;;1.48;0.75;;;;;;;;;;5091825;28;20471;-63
2023/03/26 10:32:47;;;;;;;1.98;0.88;;;;;;;;;;5097223;28;20257;-63
2023/03/26 10:35:26;;;;;;;2.28;1.00;;;;;;;;;;5097563;28;20211;-63
2023/03/26 10:38:02;;;;;;;1.08;0.60;;;;;;;;;;5097717;28;20529;-63
2023/03/26 10:40:33;;;;;;;1.90;0.70;;;;;;;;;;5098078;28;20302;-63
2023/03/26 10:43:12;;;;;;;2.35;0.90;;;;;;;;;;5097542;28;20207;-63
2023/03/26 10:45:45;;;;;;;1.20;0.75;;;;;;;;;;5097927;28;20203;-63
2023/03/26 10:48:26;;;;;;;1.13;0.70;;;;;;;;;;5097600;28;20210;-63
2023/03/26 10:50:59;;;;;;;1.60;0.85;;;;;;;;;;5097113;28;20210;-63
2023/03/26 10:53:31;;;;;;;1.02;0.70;;;;;;;;;;5097213;28;20234;-63
2023/03/26 10:56:01;;;;;;;1.48;0.75;;;;;;;;;;5097229;28;20234;-63
2023/03/26 10:58:30;;;;;;;1.45;0.70;;;;;;;;;;5096995;28;20211;-63
2023/03/26 11:01:00;;;;;;;1.20;0.60;;;;;;;;;;5096540;28;20203;-63
2023/03/26 11:03:50;;;;;;;1.00;0.68;;;;;;;;;;5096439;28;20516;-63
2023/03/26 11:06:25;;;;;;;1.00;0.60;;;;;;;;;;5097192;28;20231;-63
2023/03/26 11:08:55;;;;;;;1.48;0.60;;;;;;;;;;5097262;28;20273;-63
2023/03/26 11:11:26;;;;;;;1.33;0.70;;;;;;;;;;5097279;28;20211;-63
2023/03/26 11:13:57;;;;;;;1.20;0.50;;;;;;;;;;5097445;28;20211;-63
2023/03/26 11:16:30;;;;;;;1.08;0.68;;;;;;;;;;5096881;28;20503;-63
2023/03/26 11:19:00;;;;;;;1.67;0.73;;;;;;;;;;5097343;28;20223;-63
2023/03/26 11:21:31;;;;;;;1.63;0.85;;;;;;;;;;5097309;28;20293;-63
2023/03/26 11:24:05;;;;;;;1.42;0.70;;;;;;;;;;5096893;28;20527;-63
2023/03/26 11:26:35;;;;;;;1.42;0.70;;;;;;;;;;5096724;28;20199;-63
2023/03/26 11:29:07;;;;;;;1.23;0.68;;;;;;;;;;5096684;28;20269;-63
2023/03/26 11:31:39;;;;;;;0.95;0.63;;;;;;;;;;5096930;28;20452;-63
2023/03/26 11:34:11;;;;;;;1.73;0.95;;;;;;;;;;5097277;28;20204;-63
2023/03/26 11:36:43;;;;;;;1.50;0.60;;;;;;;;;;5096660;28;20241;-63
2023/03/26 11:39:13;;;;;;;2.20;0.82;;;;;;;;;;5096094;28;20235;-63
2023/03/26 11:41:41;;;;;;;1.95;0.70;;;;;;;;;;5096251;28;20229;-63
2023/03/26 11:44:14;;;;;;;0.88;0.65;;;;;;;;;;5095334;28;20277;-63
2023/03/26 11:46:44;;;;;;;1.02;0.55;;;;;;;;;;5096490;28;20210;-63
2023/03/26 11:49:13;;;;;;;1.00;0.70;;;;;;;;;;5095507;28;20218;-63
2023/03/26 11:51:42;;;;;;;0.93;0.60;;;;;;;;;;5095098;28;20211;-63
2023/03/26 11:54:12;;;;;;;1.25;0.60;;;;;;;;;;5095663;28;20199;-63
2023/03/26 11:56:43;;;;;;;2.47;0.60;;;;;;;;;;5096055;28;20250;-63
2023/03/26 11:59:12;;;;;;;0.50;0.45;;;;;;;;;;5095807;28;20304;-63
2023/03/26 12:01:44;;;;;;;0.95;0.60;;;;;;;;;;5096258;28;20206;-63
2023/03/26 12:04:13;;;;;;;1.33;0.50;;;;;;;;;;5095906;28;20264;-63
2023/03/26 12:06:51;;;;;;;1.20;0.68;;;;;;;;;;5097702;28;20211;-63
2023/03/26 12:09:19;;;;;;;0.85;0.60;;;;;;;;;;5100853;28;20579;-63
2023/03/26 12:11:48;;;;;;;1.05;0.70;;;;;;;;;;5099774;28;20302;-63
2023/03/26 12:14:17;;;;;;;1.17;0.70;;;;;;;;;;5098835;28;20196;-63
2023/03/26 12:16:57;;;;;;;1.73;0.68;;;;;;;;;;5100670;28;20214;-63
2023/03/26 12:19:25;;;;;;;1.33;0.70;;;;;;;;;;5100580;28;20208;-63
2023/03/26 12:21:54;;;;;;;0.80;0.55;;;;;;;;;;5100313;28;20728;-62
2023/03/26 12:24:31;;;;;;;0.55;0.50;;;;;;;;;;5100261;28;20203;-62
2023/03/26 12:27:00;;;;;;;1.52;0.60;;;;;;;;;;5100424;28;20203;-62
2023/03/26 12:29:33;;;;;;;1.10;0.60;;;;;;;;;;5099764;28;20203;-62
2023/03/26 12:32:05;;;;;;;1.88;0.98;;;;;;;;;;5099929;28;20335;-62
2023/03/26 12:34:34;;;;;;;1.40;0.80;;;;;;;;;;5095130;28;20513;-62
2023/03/26 12:37:04;;;;;;;0.73;0.60;;;;;;;;;;5079368;28;20205;-62
2023/03/26 12:39:35;;;;;;;0.93;0.60;;;;;;;;;;5079227;28;20212;-62
2023/03/26 12:42:05;;;;;;;0.50;0.50;;;;;;;;;;5079668;28;20621;-62
2023/03/26 12:44:35;;;;;;;1.55;0.68;;;;;;;;;;5079071;28;20728;-62
2023/03/26 12:47:11;;;;;;;1.10;0.70;;;;;;;;;;5079425;28;20212;-62
2023/03/26 12:49:38;;;;;;;1.00;0.73;;;;;;;;;;5078054;28;20311;-62
2023/03/26 12:52:17;;;;;;;1.08;0.60;;;;;;;;;;5079065;28;20212;-62
2023/03/26 12:54:48;;;;;;;1.02;0.60;;;;;;;;;;5078991;28;20204;-62
2023/03/26 12:57:22;;;;;;;1.10;0.43;;;;;;;;;;5079444;28;20212;-62
2023/03/26 13:00:10;;;;;;;1.73;0.70;;;;;;;;;;5078866;28;20203;-62
2023/03/26 13:02:58;;;;;;;0.98;0.60;;;;;;;;;;5078827;28;20200;-62
2023/03/26 13:05:39;;;;;;;1.00;0.73;;;;;;;;;;5078933;28;20295;-62
2023/03/26 13:08:16;;;;;;;1.30;0.70;;;;;;;;;;5078820;28;20294;-62
2023/03/26 13:10:50;;;;;;;1.92;0.60;;;;;;;;;;5079523;28;20243;-62
2023/03/26 13:13:26;;;;;;;1.38;0.60;;;;;;;;;;5078170;28;20231;-62
2023/03/26 13:15:54;;;;;;;0.70;0.57;;;;;;;;;;5078405;28;20204;-62
2023/03/26 13:18:28;;;;;;;1.20;0.60;;;;;;;;;;5079024;28;20553;-62
2023/03/26 13:20:59;;;;;;;1.63;0.52;;;;;;;;;;5078750;28;20337;-62
2023/03/26 13:23:34;;;;;;;2.63;0.60;;;;;;;;;;5078595;28;20697;-62
2023/03/26 13:26:05;;;;;;;0.68;0.63;;;;;;;;;;5078858;28;20310;-62
2023/03/26 13:28:36;;;;;;;0.60;0.50;;;;;;;;;;5078922;28;20205;-62
2023/03/26 13:31:07;;;;;;;1.70;0.88;;;;;;;;;;5078210;28;20212;-62
2023/03/26 13:33:41;;;;;;;0.90;0.77;;;;;;;;;;5078007;28;20541;-62
2023/03/26 13:36:11;;;;;;;1.20;0.70;;;;;;;;;;5078476;28;20205;-62
2023/03/26 13:38:44;;;;;;;0.60;0.52;;;;;;;;;;5078518;28;20227;-62
2023/03/26 13:41:15;;;;;;;1.40;0.80;;;;;;;;;;5078315;28;20667;-63
2023/03/26 13:43:46;;;;;;;1.00;0.77;;;;;;;;;;5077420;28;20269;-63
2023/03/26 13:46:18;;;;;;;1.58;0.77;;;;;;;;;;5077877;28;20208;-63
2023/03/26 13:48:48;;;;;;;1.15;0.90;;;;;;;;;;5078418;28;20682;-63
2023/03/26 13:51:18;;;;;;;2.72;0.90;;;;;;;;;;5078104;28;20532;-63
2023/03/26 13:53:48;;;;;;;2.40;0.95;;;;;;;;;;5078224;28;20322;-63
2023/03/26 13:56:18;;;;;;;1.02;0.93;;;;;;;;;;5076715;28;20240;-63
2023/03/26 13:58:50;;;;;;;1.33;1.10;;;;;;;;;;5077947;28;20196;-63
2023/03/26 14:01:20;;;;;;;1.10;1.00;;;;;;;;;;5077143;28;20204;-63
2023/03/26 14:03:51;;;;;;;1.67;1.00;;;;;;;;;;5077522;28;20491;-63
2023/03/26 14:06:28;;;;;;;1.17;0.95;;;;;;;;;;5077685;28;20262;-63
2023/03/26 14:09:01;;;;;;;1.00;0.90;;;;;;;;;;5077570;28;20215;-62
2023/03/26 14:11:32;;;;;;;1.13;1.00;;;;;;;;;;5077699;28;20206;-62
2023/03/26 14:14:03;;;;;;;1.42;1.00;;;;;;;;;;5076685;28;20550;-62
2023/03/26 14:16:35;;;;;;;1.58;0.98;;;;;;;;;;5077230;28;20287;-62
2023/03/26 14:19:07;;;;;;;1.58;1.20;;;;;;;;;;5077096;28;20581;-62
2023/03/26 14:21:55;;;;;;;1.45;1.00;;;;;;;;;;5077109;28;20207;-62
2023/03/26 14:24:43;;;;;;;1.38;1.05;;;;;;;;;;5077398;28;20200;-62
2023/03/26 14:27:26;;;;;;;1.25;1.15;;;;;;;;;;5077492;28;20204;-62
2023/03/26 14:29:58;;;;;;;1.30;1.20;;;;;;;;;;5076192;28;20241;-62
2023/03/26 14:32:30;;;;;;;1.00;0.90;;;;;;;;;;5077499;28;20208;-62
2023/03/26 14:35:05;;;;;;;1.27;0.90;;;;;;;;;;5076599;28;20265;-62
2023/03/26 14:37:44;;;;;;;1.10;1.00;;;;;;;;;;5076929;28;20247;-62
2023/03/26 14:40:27;;;;;;;1.10;1.00;;;;;;;;;;5076817;28;20671;-62
2023/03/26 14:42:54;;;;;;;1.63;1.10;;;;;;;;;;5076917;28;20208;-62
2023/03/26 14:45:39;;;;;;;0.90;0.90;;;;;;;;;;5076868;28;20510;-62
2023/03/26 14:48:20;;;;;;;1.80;1.00;;;;;;;;;;5076868;28;20215;-63
2023/03/26 14:50:56;;;;;;;1.63;1.00;;;;;;;;;;5076927;28;20215;-63
2023/03/26 14:53:29;;;;;;;0.95;0.95;;;;;;;;;;5076646;28;20223;-63
2023/03/26 14:56:11;;;;;;;2.10;1.30;;;;;;;;;;5076519;28;20248;-63
2023/03/26 14:58:56;;;;;;;1.35;0.95;;;;;;;;;;5021903;28;20212;-63
2023/03/26 15:01:28;;;;;;;1.08;0.90;;;;;;;;;;5075669;28;20588;-63
2023/03/26 15:04:19;;;;;;;1.50;0.88;;;;;;;;;;5076955;28;20208;-63
2023/03/26 15:07:07;;;;;;;1.00;0.90;;;;;;;;;;5076470;28;20204;-63
2023/03/26 15:09:53;;;;;;;1.27;0.93;;;;;;;;;;5075874;28;20211;-63